createdAt,value
2023-01-22T00:02:18.716Z,2.33
2023-01-22T00:04:54.184Z,4.00
2023-01-22T00:07:24.790Z,3.25
2023-01-22T00:09:56.144Z,4.70
2023-01-22T00:12:26.176Z,1.23
2023-01-22T00:14:56.829Z,2.33
2023-01-22T00:17:26.727Z,3.13
2023-01-22T00:19:55.127Z,2.03
2023-01-22T00:22:24.792Z,2.80
2023-01-22T00:24:53.450Z,3.78
2023-01-22T00:27:25.792Z,3.20
2023-01-22T00:29:56.104Z,3.58
2023-01-22T00:32:25.733Z,3.50
2023-01-22T00:34:55.505Z,3.63
2023-01-22T00:37:24.127Z,3.58
2023-01-22T00:39:52.833Z,1.83
2023-01-22T00:42:21.902Z,1.52
2023-01-22T00:44:52.005Z,2.33
2023-01-22T00:47:27.134Z,4.20
2023-01-22T00:49:56.756Z,1.00
2023-01-22T00:52:27.692Z,1.25
2023-01-22T00:54:58.390Z,3.60
2023-01-22T00:57:28.956Z,1.95
2023-01-22T00:59:59.005Z,3.35
2023-01-22T01:02:28.862Z,2.13
2023-01-22T01:04:58.698Z,4.47
2023-01-22T01:07:27.399Z,1.40
2023-01-22T01:09:56.036Z,1.52
2023-01-22T01:12:24.581Z,2.55
2023-01-22T01:14:56.957Z,1.75
2023-01-22T01:17:27.079Z,1.75
2023-01-22T01:19:55.654Z,1.45
2023-01-22T01:22:24.337Z,2.03
2023-01-22T01:24:53.869Z,0.95
2023-01-22T01:27:23.035Z,0.95
2023-01-22T01:29:53.332Z,1.38
2023-01-22T01:32:21.839Z,1.00
2023-01-22T01:34:53.743Z,1.38
2023-01-22T01:37:22.418Z,1.58
2023-01-22T01:39:52.803Z,1.70
2023-01-22T01:42:29.432Z,2.15
2023-01-22T01:45:29.486Z,2.70
2023-01-22T01:48:07.742Z,0.90
2023-01-22T01:50:39.510Z,0.98
2023-01-22T01:53:15.421Z,1.38
2023-01-22T01:55:46.096Z,2.22
2023-01-22T01:58:23.104Z,1.05
2023-01-22T02:01:03.646Z,1.77
2023-01-22T02:03:32.654Z,1.67
2023-01-22T02:06:05.172Z,3.35
2023-01-22T02:08:34.334Z,2.00
2023-01-22T02:11:03.100Z,1.50
2023-01-22T02:13:36.542Z,2.85
2023-01-22T02:16:08.102Z,1.08
2023-01-22T02:18:43.129Z,1.42
2023-01-22T02:21:44.099Z,2.15
2023-01-22T02:24:14.748Z,1.63
2023-01-22T02:26:45.802Z,2.97
2023-01-22T02:29:18.067Z,2.28
2023-01-22T02:31:52.892Z,1.55
2023-01-22T02:34:25.231Z,0.80
2023-01-22T02:36:57.677Z,1.42
2023-01-22T02:39:27.217Z,2.97
2023-01-22T02:41:55.694Z,1.60
2023-01-22T02:44:26.174Z,0.63
2023-01-22T02:46:54.929Z,1.42
2023-01-22T02:49:26.998Z,1.08
2023-01-22T02:52:06.013Z,0.47
2023-01-22T02:54:36.742Z,0.80
2023-01-22T02:57:07.567Z,2.05
2023-01-22T02:59:36.647Z,2.05
2023-01-22T03:02:07.352Z,1.98
2023-01-22T03:04:36.054Z,1.40
2023-01-22T03:07:07.142Z,1.42
2023-01-22T03:09:39.630Z,1.48
2023-01-22T03:12:09.343Z,0.50
2023-01-22T03:14:57.533Z,1.90
2023-01-22T03:17:43.702Z,1.50
2023-01-22T03:20:30.972Z,2.15
2023-01-22T03:23:00.804Z,2.42
2023-01-22T03:25:29.207Z,2.17
2023-01-22T03:28:11.658Z,1.45
2023-01-22T03:30:42.381Z,2.15
2023-01-22T03:33:11.307Z,1.70
2023-01-22T03:35:42.800Z,1.20
2023-01-22T03:38:13.365Z,0.73
2023-01-22T03:40:46.029Z,0.40
2023-01-22T03:43:14.671Z,0.80
2023-01-22T03:45:43.504Z,0.93
2023-01-22T03:48:15.011Z,2.28
2023-01-22T03:50:43.575Z,1.30
2023-01-22T03:53:13.684Z,2.38
2023-01-22T03:55:43.342Z,2.60
2023-01-22T03:58:13.986Z,1.77
2023-01-22T04:00:42.681Z,0.95
2023-01-22T04:03:12.551Z,0.82
2023-01-22T04:05:41.043Z,1.40
2023-01-22T04:08:09.348Z,0.85
2023-01-22T04:10:41.362Z,0.30
2023-01-22T04:13:10.034Z,1.10
2023-01-22T04:15:47.278Z,0.82
2023-01-22T04:18:16.109Z,1.45
2023-01-22T04:20:44.489Z,0.65
2023-01-22T04:23:13.066Z,0.90
2023-01-22T04:25:43.096Z,0.70
2023-01-22T04:28:14.929Z,2.83
2023-01-22T04:30:49.311Z,1.50
2023-01-22T04:33:19.212Z,0.52
2023-01-22T04:35:52.778Z,0.77
2023-01-22T04:38:27.499Z,0.82
2023-01-22T04:40:57.623Z,1.08
2023-01-22T04:43:27.420Z,1.58
2023-01-22T04:46:02.279Z,0.40
2023-01-22T04:48:32.947Z,1.30
2023-01-22T04:51:08.587Z,0.43
2023-01-22T04:53:38.499Z,1.40
2023-01-22T04:56:09.011Z,0.60
2023-01-22T04:58:37.706Z,1.30
2023-01-22T05:01:06.288Z,2.05
2023-01-22T05:03:35.134Z,2.25
2023-01-22T05:06:05.272Z,2.00
2023-01-22T05:08:34.262Z,1.55
2023-01-22T05:11:10.530Z,1.75
2023-01-22T05:13:44.893Z,0.88
2023-01-22T05:16:15.772Z,1.52
2023-01-22T05:18:44.386Z,0.55
2023-01-22T05:21:15.050Z,1.08
2023-01-22T05:23:46.954Z,1.42
2023-01-22T05:26:20.128Z,1.63
2023-01-22T05:28:48.804Z,2.50
2023-01-22T05:31:17.445Z,1.85
2023-01-22T05:33:46.041Z,2.25
2023-01-22T05:36:14.656Z,1.85
2023-01-22T05:38:46.972Z,2.10
2023-01-22T05:41:16.268Z,1.80
2023-01-22T05:43:46.398Z,2.15
2023-01-22T05:46:15.405Z,2.35
2023-01-22T05:48:43.962Z,2.22
2023-01-22T05:51:15.791Z,2.08
2023-01-22T05:53:47.565Z,4.70
2023-01-22T05:56:16.374Z,2.53
2023-01-22T05:58:52.603Z,2.17
2023-01-22T06:01:21.373Z,2.45
2023-01-22T06:03:50.053Z,1.88
2023-01-22T06:06:19.851Z,3.13
2023-01-22T06:08:51.623Z,1.35
2023-01-22T06:11:21.459Z,2.30
2023-01-22T06:13:51.669Z,1.92
2023-01-22T06:16:25.213Z,2.83
2023-01-22T06:18:54.800Z,1.35
2023-01-22T06:21:23.451Z,2.58
2023-01-22T06:23:51.932Z,2.58
2023-01-22T06:26:20.972Z,2.10
2023-01-22T06:28:55.370Z,1.20
2023-01-22T06:31:24.129Z,2.20
2023-01-22T06:33:54.704Z,2.97
2023-01-22T06:36:23.344Z,1.95
2023-01-22T06:38:51.894Z,2.63
2023-01-22T06:41:26.542Z,2.08
2023-01-22T06:43:57.034Z,3.63
2023-01-22T06:46:26.856Z,2.28
2023-01-22T06:48:56.725Z,2.08
2023-01-22T06:51:32.034Z,3.55
2023-01-22T06:54:01.524Z,1.20
2023-01-22T06:56:32.498Z,1.00
2023-01-22T06:59:04.935Z,3.40
2023-01-22T07:01:34.826Z,2.25
2023-01-22T07:04:12.470Z,1.23
2023-01-22T07:06:42.103Z,2.65
2023-01-22T07:09:10.703Z,1.75
2023-01-22T07:11:39.252Z,1.63
2023-01-22T07:14:10.324Z,1.23
2023-01-22T07:16:38.939Z,0.50
2023-01-22T07:19:07.904Z,2.60
2023-01-22T07:21:37.646Z,1.00
2023-01-22T07:24:07.055Z,1.35
2023-01-22T07:26:39.183Z,1.27
2023-01-22T07:29:10.134Z,1.27
2023-01-22T07:31:38.778Z,4.38
2023-01-22T07:34:18.102Z,2.15
2023-01-22T07:36:48.670Z,3.20
2023-01-22T07:39:23.590Z,2.05
2023-01-22T07:41:52.202Z,2.17
2023-01-22T07:44:23.242Z,1.30
2023-01-22T07:46:53.063Z,0.68
2023-01-22T07:49:21.733Z,0.65
2023-01-22T07:51:50.350Z,1.58
2023-01-22T07:54:20.401Z,1.50
2023-01-22T07:56:56.783Z,0.82
2023-01-22T07:59:32.112Z,1.02
2023-01-22T08:02:03.699Z,0.70
2023-01-22T08:04:32.722Z,2.55
2023-01-22T08:07:13.744Z,0.63
2023-01-22T08:09:46.289Z,0.75
2023-01-22T08:12:17.288Z,1.05
2023-01-22T08:14:47.276Z,0.95
2023-01-22T08:17:15.845Z,1.73
2023-01-22T08:19:50.063Z,0.93
2023-01-22T08:22:25.967Z,0.52
2023-01-22T08:25:01.398Z,1.10
2023-01-22T08:27:35.421Z,1.95
2023-01-22T08:30:08.022Z,0.85
2023-01-22T08:32:47.139Z,1.98
2023-01-22T08:35:16.015Z,1.83
2023-01-22T08:37:45.656Z,0.60
2023-01-22T08:40:15.445Z,0.30
2023-01-22T08:42:44.111Z,1.10
2023-01-22T08:45:15.992Z,1.90
2023-01-22T08:47:44.782Z,0.50
2023-01-22T08:50:13.393Z,1.17
2023-01-22T08:52:43.114Z,0.73
2023-01-22T08:55:13.913Z,0.50
2023-01-22T08:57:42.769Z,0.57
2023-01-22T09:00:16.964Z,0.90
2023-01-22T09:02:46.798Z,1.20
2023-01-22T09:05:15.573Z,3.10
2023-01-22T09:07:45.426Z,1.00
2023-01-22T09:10:14.351Z,1.50
2023-01-22T09:12:43.092Z,0.88
2023-01-22T09:15:15.461Z,0.43
2023-01-22T09:17:46.166Z,0.77
2023-01-22T09:20:14.841Z,1.10
2023-01-22T09:22:46.536Z,1.73
2023-01-22T09:25:15.175Z,2.15
2023-01-22T09:27:50.543Z,1.05
2023-01-22T09:30:21.092Z,2.70
2023-01-22T09:32:57.107Z,1.25
2023-01-22T09:35:28.865Z,0.75
2023-01-22T09:37:57.683Z,1.35
2023-01-22T09:40:30.199Z,1.13
2023-01-22T09:43:06.630Z,0.68
2023-01-22T09:45:40.804Z,2.63
2023-01-22T09:48:17.046Z,1.27
2023-01-22T09:50:46.868Z,1.95
2023-01-22T09:53:22.657Z,1.63
2023-01-22T09:55:57.882Z,2.25
2023-01-22T09:58:27.923Z,2.72
2023-01-22T10:01:08.743Z,1.00
2023-01-22T10:03:40.856Z,1.65
2023-01-22T10:06:13.899Z,0.63
2023-01-22T10:08:54.266Z,2.22
2023-01-22T10:11:22.906Z,0.98
2023-01-22T10:13:57.713Z,2.35
2023-01-22T10:16:30.427Z,2.58
2023-01-22T10:19:04.438Z,3.00
2023-01-22T10:21:41.036Z,1.85
2023-01-22T10:24:12.600Z,1.73
2023-01-22T10:26:44.667Z,10.23
2023-01-22T10:29:22.444Z,9.43
2023-01-22T10:31:56.353Z,9.32
2023-01-22T10:34:31.182Z,12.07
2023-01-22T10:37:03.842Z,3.70
2023-01-22T10:39:41.887Z,3.72
2023-01-22T10:42:18.826Z,3.15
2023-01-22T10:44:48.434Z,1.05
2023-01-22T10:47:22.894Z,2.45
2023-01-22T10:50:04.824Z,3.22
2023-01-22T10:52:38.262Z,4.68
2023-01-22T10:55:08.849Z,4.65
2023-01-22T10:57:40.455Z,1.73
2023-01-22T11:00:24.575Z,0.93
2023-01-22T11:02:56.919Z,1.77
2023-01-22T11:05:27.585Z,3.22
2023-01-22T11:08:00.269Z,2.65
2023-01-22T11:10:41.043Z,3.10
2023-01-22T11:13:14.932Z,1.48
2023-01-22T11:15:49.941Z,1.23
2023-01-22T11:18:32.883Z,2.17
2023-01-22T11:21:12.186Z,2.08
2023-01-22T11:23:49.035Z,2.45
2023-01-22T11:26:28.943Z,2.05
2023-01-22T11:29:09.033Z,1.38
2023-01-22T11:31:53.389Z,1.23
2023-01-22T11:34:41.221Z,0.93
2023-01-22T11:37:15.388Z,1.42
2023-01-22T11:40:13.664Z,1.73
2023-01-22T11:42:59.049Z,2.00
2023-01-22T11:45:41.493Z,2.50
2023-01-22T11:48:24.874Z,2.10
2023-01-22T11:51:05.448Z,2.97
2023-01-22T11:53:49.974Z,8.55
2023-01-22T11:56:41.680Z,2.40
2023-01-22T11:59:15.765Z,1.48
2023-01-22T12:02:20.064Z,2.70
2023-01-22T12:05:09.200Z,0.88
2023-01-22T12:08:13.451Z,1.67
2023-01-22T12:11:08.485Z,2.42
2023-01-22T12:13:55.290Z,0.45
2023-01-22T12:16:33.677Z,1.67
2023-01-22T12:19:37.803Z,8.45
2023-01-22T12:22:13.143Z,3.55
2023-01-22T12:24:48.747Z,4.20
2023-01-22T12:27:24.249Z,2.58
2023-01-22T12:29:56.955Z,2.65
2023-01-22T12:32:30.556Z,1.10
2023-01-22T12:35:06.861Z,3.33
2023-01-22T12:37:42.006Z,1.83
2023-01-22T12:40:41.828Z,1.63
2023-01-22T12:43:11.556Z,3.13
2023-01-22T12:45:45.417Z,4.40
2023-01-22T12:48:25.480Z,1.50
2023-01-22T12:50:56.415Z,2.13
2023-01-22T12:53:29.156Z,2.47
2023-01-22T12:56:07.528Z,7.28
2023-01-22T12:58:44.118Z,5.68
2023-01-22T13:01:25.462Z,1.63
2023-01-22T13:04:02.521Z,4.57
2023-01-22T13:06:38.517Z,2.90
2023-01-22T13:09:25.444Z,1.58
2023-01-22T13:11:55.483Z,1.50
2023-01-22T13:14:28.178Z,1.75
2023-01-22T13:16:59.986Z,1.67
2023-01-22T13:19:39.178Z,1.42
2023-01-22T13:22:14.950Z,0.90
2023-01-22T13:24:50.936Z,11.15
2023-01-22T13:27:30.953Z,10.32
2023-01-22T13:30:09.383Z,17.30
2023-01-22T13:32:38.128Z,13.73
2023-01-22T13:35:08.505Z,8.93
2023-01-22T13:37:38.965Z,4.57
2023-01-22T13:40:16.178Z,6.50
2023-01-22T13:42:48.097Z,5.30
2023-01-22T13:45:20.474Z,1.45
2023-01-22T13:47:49.204Z,3.13
2023-01-22T13:50:23.415Z,0.85
2023-01-22T13:52:52.456Z,1.40
2023-01-22T13:55:23.879Z,1.90
2023-01-22T13:57:55.169Z,1.70
2023-01-22T14:00:27.279Z,1.27
2023-01-22T14:02:56.403Z,2.75
2023-01-22T14:05:27.352Z,2.95
2023-01-22T14:08:07.828Z,1.42
2023-01-22T14:10:37.769Z,1.92
2023-01-22T14:13:10.894Z,1.13
2023-01-22T14:15:41.272Z,1.23
2023-01-22T14:18:11.960Z,1.92
2023-01-22T14:20:42.002Z,2.13
2023-01-22T14:23:11.101Z,1.42
2023-01-22T14:25:40.546Z,1.40
2023-01-22T14:28:11.114Z,1.25
2023-01-22T14:30:39.743Z,1.10
2023-01-22T14:33:08.643Z,0.80
2023-01-22T14:35:37.411Z,0.70
2023-01-22T14:38:05.992Z,1.80
2023-01-22T14:40:35.126Z,1.15
2023-01-22T14:43:05.081Z,1.80
2023-01-22T14:45:35.483Z,1.83
2023-01-22T14:48:04.775Z,2.22
2023-01-22T14:50:36.710Z,0.95
2023-01-22T14:53:06.480Z,1.75
2023-01-22T14:55:35.924Z,1.17
2023-01-22T14:58:07.745Z,2.15
2023-01-22T15:00:38.392Z,1.55
2023-01-22T15:03:07.734Z,1.25
2023-01-22T15:05:36.517Z,1.13
2023-01-22T15:08:05.474Z,1.45
2023-01-22T15:10:34.354Z,1.77
2023-01-22T15:13:03.445Z,2.17
2023-01-22T15:15:32.217Z,1.30
2023-01-22T15:18:03.329Z,1.45
2023-01-22T15:20:32.125Z,1.30
2023-01-22T15:23:00.983Z,1.48
2023-01-22T15:25:29.840Z,2.78
2023-01-22T15:27:58.474Z,1.67
2023-01-22T15:30:27.337Z,1.98
2023-01-22T15:32:56.584Z,2.08
2023-01-22T15:35:26.701Z,2.17
2023-01-22T15:37:55.324Z,5.57
2023-01-22T15:40:23.795Z,6.45
2023-01-22T15:42:52.488Z,4.22
2023-01-22T15:45:21.495Z,3.55
2023-01-22T15:47:50.251Z,3.75
2023-01-22T15:50:21.600Z,3.05
2023-01-22T15:52:55.189Z,3.70
2023-01-22T15:55:23.747Z,1.45
2023-01-22T15:57:52.462Z,3.55
2023-01-22T16:00:22.858Z,2.35
2023-01-22T16:02:51.693Z,1.90
2023-01-22T16:05:21.451Z,2.17
2023-01-22T16:07:52.614Z,2.17
2023-01-22T16:10:21.929Z,2.20
2023-01-22T16:12:50.535Z,1.80
2023-01-22T16:15:19.428Z,2.10
2023-01-22T16:17:48.301Z,2.70
2023-01-22T16:20:17.636Z,2.83
2023-01-22T16:22:46.965Z,2.92
2023-01-22T16:25:16.908Z,7.43
2023-01-22T16:27:46.550Z,12.52
2023-01-22T16:30:16.826Z,29.08
2023-01-22T16:32:46.396Z,14.18
2023-01-22T16:35:15.120Z,17.10
2023-01-22T16:37:45.615Z,16.38
2023-01-22T16:40:18.544Z,26.40
2023-01-22T16:43:00.353Z,19.83
2023-01-22T16:45:28.898Z,7.05
2023-01-22T16:47:58.308Z,6.82
2023-01-22T16:50:26.874Z,4.93
2023-01-22T16:52:55.470Z,5.05
2023-01-22T16:55:25.777Z,13.30
2023-01-22T16:57:54.420Z,5.50
2023-01-22T17:00:23.372Z,5.13
2023-01-22T17:02:51.999Z,4.72
2023-01-22T17:05:20.899Z,5.57
2023-01-22T17:07:49.656Z,13.07
2023-01-22T17:10:18.830Z,12.48
2023-01-22T17:12:49.409Z,5.60
2023-01-22T17:15:18.635Z,7.45
2023-01-22T17:17:47.119Z,6.68
2023-01-22T17:20:16.970Z,7.20
2023-01-22T17:22:48.617Z,6.95
2023-01-22T17:25:17.554Z,7.93
2023-01-22T17:27:46.144Z,9.10
2023-01-22T17:30:18.321Z,11.00
2023-01-22T17:32:47.850Z,6.70
2023-01-22T17:35:17.533Z,4.25
2023-01-22T17:37:47.600Z,6.88
2023-01-22T17:40:17.488Z,7.43
2023-01-22T17:42:46.258Z,7.65
2023-01-22T17:45:16.499Z,8.13
2023-01-22T17:47:45.840Z,8.45
2023-01-22T17:50:14.561Z,4.88
2023-01-22T17:52:44.257Z,3.65
2023-01-22T17:55:15.720Z,31.55
2023-01-22T17:57:45.173Z,46.92
2023-01-22T18:00:19.267Z,49.17
2023-01-22T18:02:50.336Z,57.70
2023-01-22T18:05:19.327Z,54.70
2023-01-22T18:07:47.910Z,53.88
2023-01-22T18:10:16.699Z,49.58
2023-01-22T18:12:45.884Z,48.50
2023-01-22T18:15:14.592Z,51.88
2023-01-22T18:17:44.789Z,49.83
2023-01-22T18:20:13.699Z,50.13
2023-01-22T18:22:42.319Z,46.75
2023-01-22T18:25:11.388Z,52.33
2023-01-22T18:27:39.826Z,49.30
2023-01-22T18:30:10.207Z,54.63
2023-01-22T18:32:38.837Z,58.97
2023-01-22T18:35:11.073Z,55.72
2023-01-22T18:37:40.855Z,51.67
2023-01-22T18:40:11.033Z,51.60
2023-01-22T18:42:39.662Z,51.15
2023-01-22T18:45:10.075Z,51.75
2023-01-22T18:47:38.740Z,71.13
2023-01-22T18:50:12.450Z,74.68
2023-01-22T18:52:42.195Z,69.43
2023-01-22T18:55:11.594Z,73.32
2023-01-22T18:57:43.316Z,51.70
2023-01-22T19:00:14.178Z,50.67
2023-01-22T19:02:43.512Z,41.78
2023-01-22T19:05:13.752Z,36.40
2023-01-22T19:07:42.520Z,42.20
2023-01-22T19:10:13.173Z,36.65
2023-01-22T19:12:41.816Z,37.95
2023-01-22T19:15:11.887Z,43.78
2023-01-22T19:17:40.810Z,39.03
2023-01-22T19:20:13.339Z,37.10
2023-01-22T19:22:44.044Z,38.17
2023-01-22T19:25:12.915Z,36.97
2023-01-22T19:27:41.734Z,40.15
2023-01-22T19:30:11.970Z,35.88
2023-01-22T19:32:40.693Z,35.17
2023-01-22T19:35:11.016Z,40.42
2023-01-22T19:37:40.207Z,40.63
2023-01-22T19:40:11.620Z,38.97
2023-01-22T19:42:42.092Z,38.70
2023-01-22T19:45:11.297Z,43.15
2023-01-22T19:47:39.982Z,40.55
2023-01-22T19:50:09.927Z,43.70
2023-01-22T19:52:38.837Z,36.80
2023-01-22T19:55:08.326Z,40.83
2023-01-22T19:57:38.718Z,38.67
2023-01-22T20:00:09.396Z,39.63
2023-01-22T20:02:38.300Z,38.30
2023-01-22T20:05:08.202Z,44.85
2023-01-22T20:07:36.954Z,42.35
2023-01-22T20:10:07.199Z,47.83
2023-01-22T20:12:35.803Z,49.25
2023-01-22T20:15:07.314Z,35.92
2023-01-22T20:17:36.871Z,39.45
2023-01-22T20:20:07.906Z,39.75
2023-01-22T20:22:36.668Z,34.63
2023-01-22T20:25:09.949Z,41.47
2023-01-22T20:27:38.741Z,38.70
2023-01-22T20:30:11.956Z,41.28
2023-01-22T20:32:43.749Z,35.28
2023-01-22T20:35:15.762Z,34.17
2023-01-22T20:37:44.395Z,39.67
2023-01-22T20:40:15.023Z,41.03
2023-01-22T20:42:43.990Z,40.35
2023-01-22T20:45:14.228Z,35.00
2023-01-22T20:47:43.258Z,38.30
2023-01-22T20:50:13.388Z,34.97
2023-01-22T20:52:42.119Z,33.58
2023-01-22T20:55:13.826Z,33.25
2023-01-22T20:57:42.847Z,35.13
2023-01-22T21:00:15.385Z,36.30
2023-01-22T21:02:44.227Z,35.58
2023-01-22T21:05:13.010Z,31.48
2023-01-22T21:07:41.598Z,32.67
2023-01-22T21:10:13.683Z,32.60
2023-01-22T21:12:42.884Z,31.15
2023-01-22T21:15:12.437Z,32.75
2023-01-22T21:17:42.747Z,34.35
2023-01-22T21:20:14.753Z,31.00
2023-01-22T21:22:43.725Z,29.30
2023-01-22T21:25:12.514Z,28.40
2023-01-22T21:27:41.175Z,27.63
2023-01-22T21:30:11.114Z,32.30
2023-01-22T21:32:40.783Z,28.85
2023-01-22T21:35:11.854Z,28.70
2023-01-22T21:37:40.585Z,30.33
2023-01-22T21:40:13.491Z,30.35
2023-01-22T21:43:00.151Z,28.30
2023-01-22T21:45:45.883Z,26.70
2023-01-22T21:48:14.719Z,27.98
2023-01-22T21:50:45.498Z,32.45
2023-01-22T21:53:14.287Z,32.03
2023-01-22T21:55:51.698Z,27.90
2023-01-22T21:58:20.431Z,35.25
2023-01-22T22:00:49.388Z,29.30
2023-01-22T22:03:19.976Z,30.77
2023-01-22T22:06:02.020Z,43.03
2023-01-22T22:08:31.567Z,45.83
2023-01-22T22:11:00.345Z,41.28
2023-01-22T22:13:29.065Z,42.33
2023-01-22T22:16:00.778Z,42.30
2023-01-22T22:18:29.786Z,36.42
2023-01-22T22:21:05.373Z,39.13
2023-01-22T22:23:35.570Z,42.70
2023-01-22T22:26:05.713Z,40.97
2023-01-22T22:28:38.557Z,41.70
2023-01-22T22:31:12.087Z,42.13
2023-01-22T22:33:41.115Z,39.03
2023-01-22T22:36:13.425Z,37.75
2023-01-22T22:38:42.186Z,37.22
2023-01-22T22:41:14.091Z,33.38
2023-01-22T22:43:44.934Z,33.47
2023-01-22T22:46:17.695Z,34.70
2023-01-22T22:48:47.996Z,33.80
2023-01-22T22:51:20.848Z,34.42
2023-01-22T22:53:53.032Z,35.22
2023-01-22T22:56:23.441Z,33.33
2023-01-22T22:58:52.625Z,29.75
2023-01-22T23:01:23.737Z,30.20
2023-01-22T23:03:53.744Z,28.00
2023-01-22T23:06:26.404Z,27.83
2023-01-22T23:08:57.566Z,28.33
2023-01-22T23:11:29.126Z,25.27
2023-01-22T23:14:01.625Z,27.55
2023-01-22T23:16:33.070Z,24.20
2023-01-22T23:19:04.264Z,25.25
2023-01-22T23:21:36.913Z,26.00
2023-01-22T23:24:07.338Z,26.30
2023-01-22T23:26:36.235Z,22.35
2023-01-22T23:29:06.659Z,21.50
2023-01-22T23:31:38.475Z,23.58
2023-01-22T23:34:09.595Z,23.63
2023-01-22T23:36:41.221Z,25.27
2023-01-22T23:39:10.075Z,24.50
2023-01-22T23:41:38.801Z,22.08
2023-01-22T23:44:07.381Z,23.92
2023-01-22T23:46:36.871Z,24.25
2023-01-22T23:49:05.993Z,23.65
2023-01-22T23:51:34.886Z,23.80
2023-01-22T23:54:06.254Z,25.42
2023-01-22T23:56:35.453Z,22.58
2023-01-22T23:59:04.047Z,23.15
